CAL220 RCKH-RCTP
Flight info
| Callsign | CAL220 |
|---|---|
| Flight time | N/A |
| Altitude | 19000 |
| Route | TNN2G TNN TNN1A |
| Aircraft | B77W/H-SDE1E2E3FGHIJ2J3J4J5M1RWXY/LB1D1 |
Departure
| Time | N/A |
|---|---|
| Airport | Kaohsiung International Airport (RCKH) |
Arrival
| Time | 2026-05-04 14:33 |
|---|---|
| Airport | Taiwan Taoyuan International Airport (RCTP) |
| Time | Latitude | Longitude | Altitude | Speed | Heading |
|---|---|---|---|---|---|
| 2026-05-04 14:21 | 24.46799 | 120.53946 | 13632 ft | 397 kts | 13° |
| 2026-05-04 14:21 | 24.51762 | 120.55687 | 12514 ft | 354 kts | 13° |
| 2026-05-04 14:21 | 24.56338 | 120.57284 | 11616 ft | 344 kts | 13° |
| 2026-05-04 14:21 | 24.61161 | 120.58960 | 10920 ft | 372 kts | 14° |
| 2026-05-04 14:22 | 24.65810 | 120.60603 | 10572 ft | 324 kts | 13° |
| 2026-05-04 14:22 | 24.69334 | 120.62897 | 10256 ft | 280 kts | 39° |
| 2026-05-04 14:22 | 24.72041 | 120.65622 | 10032 ft | 255 kts | 39° |
| 2026-05-04 14:22 | 24.74018 | 120.67593 | 9932 ft | 285 kts | 39° |
| 2026-05-04 14:23 | 24.77208 | 120.70749 | 9289 ft | 318 kts | 40° |
| 2026-05-04 14:23 | 24.78858 | 120.72382 | 8932 ft | 319 kts | 40° |
| 2026-05-04 14:23 | 24.80512 | 120.74017 | 8590 ft | 318 kts | 40° |
| 2026-05-04 14:24 | 24.82157 | 120.75639 | 8231 ft | 318 kts | 40° |
| 2026-05-04 14:24 | 24.83814 | 120.77274 | 7841 ft | 319 kts | 40° |
| 2026-05-04 14:24 | 24.85470 | 120.78905 | 7501 ft | 318 kts | 41° |
| 2026-05-04 14:24 | 24.87092 | 120.80504 | 7220 ft | 315 kts | 41° |
| 2026-05-04 14:25 | 24.88726 | 120.82115 | 6857 ft | 316 kts | 41° |
| 2026-05-04 14:25 | 24.91523 | 120.85761 | 5862 ft | 315 kts | 73° |
| 2026-05-04 14:25 | 24.91842 | 120.88128 | 5416 ft | 312 kts | 94° |
| 2026-05-04 14:26 | 24.91737 | 120.90107 | 5080 ft | 311 kts | 97° |
| 2026-05-04 14:26 | 24.91600 | 120.92460 | 4839 ft | 306 kts | 96° |
| 2026-05-04 14:26 | 24.91480 | 120.94778 | 4638 ft | 299 kts | 96° |
| 2026-05-04 14:26 | 24.91370 | 120.97030 | 4515 ft | 290 kts | 95° |
| 2026-05-04 14:27 | 24.91272 | 120.99190 | 4412 ft | 278 kts | 92° |
| 2026-05-04 14:27 | 24.91624 | 121.01225 | 4271 ft | 270 kts | 65° |
| 2026-05-04 14:27 | 24.92617 | 121.02911 | 4210 ft | 257 kts | 53° |
| 2026-05-04 14:27 | 24.93747 | 121.04397 | 4019 ft | 250 kts | 50° |
| 2026-05-04 14:28 | 24.94894 | 121.05830 | 3722 ft | 247 kts | 50° |
| 2026-05-04 14:28 | 24.95972 | 121.07188 | 3392 ft | 221 kts | 52° |
| 2026-05-04 14:28 | 24.96912 | 121.08378 | 3143 ft | 191 kts | 53° |
| 2026-05-04 14:28 | 24.97721 | 121.09404 | 2910 ft | 166 kts | 55° |
| 2026-05-04 14:29 | 24.99078 | 121.11135 | 2509 ft | 133 kts | 56° |
| 2026-05-04 14:29 | 25.00025 | 121.12347 | 2282 ft | 132 kts | 54° |
| 2026-05-04 14:30 | 25.00634 | 121.13123 | 2090 ft | 133 kts | 54° |
| 2026-05-04 14:30 | 25.01228 | 121.13877 | 1892 ft | 128 kts | 56° |
| 2026-05-04 14:30 | 25.02395 | 121.15368 | 1570 ft | 127 kts | 56° |
| 2026-05-04 14:31 | 25.02968 | 121.16095 | 1388 ft | 124 kts | 56° |
| 2026-05-04 14:31 | 25.04123 | 121.17570 | 1076 ft | 130 kts | 54° |
| 2026-05-04 14:32 | 25.05276 | 121.19033 | 700 ft | 122 kts | 52° |
| 2026-05-04 14:32 | 25.05839 | 121.19752 | 588 ft | 128 kts | 51° |
| 2026-05-04 14:32 | 25.06438 | 121.20514 | 465 ft | 132 kts | 50° |
| 2026-05-04 14:32 | 25.07030 | 121.21274 | 217 ft | 127 kts | 50° |
| 2026-05-04 14:33 | 25.07595 | 121.21989 | 115 ft | 118 kts | 51° |
| 2026-05-04 14:33 | 25.08063 | 121.22584 | 107 ft | 80 kts | 48° |
| 2026-05-04 14:33 | 25.08355 | 121.22965 | 108 ft | 59 kts | 56° |
| 2026-05-04 14:33 | 25.08462 | 121.23302 | 107 ft | 31 kts | 80° |